»·PEaware :: N132EF KSBP-KWHP

N132EF :: KSBP-KWHP

FLIGHT INFORMATION

Flight Status: Arrived
Operator: Privately registered:
United States
More flights under this callsign
Pilot: Ron R. (25532)
Aircraft: BEECH AIRCRAFT DUKE
(BE60)
More flights by this aircraft type
Origin: KSBP San Luis Co Regl
United States
Destination: KWHP Whiteman
United States
More flights between these airports :: More routes between these airports
Route: +RZS V186 FIM
File this flight plan on PilotEdge
Remarks:
Altitude:
(Current/Filed)
7,000ft
Speed:
(Current/Filed)
210kts
Departed: 07-Sep-19 08:19 PM
Arrived: 07-Sep-19 09:05 PM
Distance/Time
Traveled:
125nm/0:46
Distance/Time
To Go:
Arrived

Flight Plot

Page will automatically refresh every two minutes.


Map Options




Map Legend


Flown Route
Filed Route
Departure Airport
Arrival Airport
Navaid (VOR, NDB)
Fix

Horizontal Profiles

Position Reports

Time Latitude Longitude Heading Altitude Ground
Speed
07-Sep-19 19:45 35.238272 -120.639192 90 215ft 0kts
07-Sep-19 19:46 35.238272 -120.639192 90 215ft 0kts
07-Sep-19 19:47 35.238272 -120.639192 90 215ft 0kts
07-Sep-19 19:48 35.238272 -120.639192 90 215ft 0kts
07-Sep-19 19:49 35.238272 -120.639192 90 215ft 0kts
07-Sep-19 19:50 35.238272 -120.639192 90 215ft 0kts
07-Sep-19 19:51 35.238272 -120.639192 90 215ft 0kts
07-Sep-19 19:52 35.238272 -120.639192 90 215ft 0kts
07-Sep-19 19:53 35.238272 -120.639192 90 215ft 0kts
07-Sep-19 19:54 35.238272 -120.639190 90 215ft 0kts
07-Sep-19 19:55 35.238272 -120.639187 90 215ft 0kts
07-Sep-19 19:56 35.238272 -120.639184 90 215ft 0kts
07-Sep-19 19:56 35.238272 -120.639182 90 215ft 0kts
07-Sep-19 19:58 35.238272 -120.639178 90 215ft 0kts
07-Sep-19 19:59 35.238272 -120.639175 90 215ft 0kts
07-Sep-19 19:59 35.238272 -120.639173 90 215ft 0kts
07-Sep-19 20:00 35.238272 -120.639170 90 215ft 0kts
07-Sep-19 20:02 35.238272 -120.639167 90 215ft 0kts
07-Sep-19 20:02 35.238272 -120.639164 90 215ft 0kts
07-Sep-19 20:03 35.238272 -120.639161 90 215ft 0kts
07-Sep-19 20:05 35.238272 -120.639158 90 215ft 0kts
07-Sep-19 20:05 35.237901 -120.639041 185 215ft 4kts
07-Sep-19 20:06 35.235764 -120.636255 124 215ft 14kts
07-Sep-19 20:07 35.233497 -120.632129 134 215ft 11kts
07-Sep-19 20:08 35.233242 -120.632172 274 215ft 0kts
07-Sep-19 20:09 35.233242 -120.632176 274 215ft 0kts
07-Sep-19 20:10 35.233243 -120.632180 274 215ft 0kts
07-Sep-19 20:11 35.233243 -120.632183 274 215ft 0kts
07-Sep-19 20:12 35.233244 -120.632194 274 215ft 0kts
07-Sep-19 20:13 35.233244 -120.632200 274 215ft 0kts
07-Sep-19 20:14 35.233240 -120.632644 218 215ft 0kts
07-Sep-19 20:15 35.233238 -120.632646 218 215ft 0kts
07-Sep-19 20:16 35.233236 -120.632648 218 215ft 0kts
07-Sep-19 20:17 35.233053 -120.633473 304 215ft 0kts
07-Sep-19 20:18 35.247657 -120.658475 306 870ft 135kts
07-Sep-19 20:19 35.267562 -120.695243 304 2435ft 123kts
07-Sep-19 20:20 35.283910 -120.731167 300 4057ft 126kts
07-Sep-19 20:21 35.299127 -120.770197 269 5637ft 136kts
07-Sep-19 20:22 35.263949 -120.774738 136 6981ft 186kts
07-Sep-19 20:23 35.224051 -120.722259 130 7023ft 227kts
07-Sep-19 20:24 35.180562 -120.662767 132 7018ft 238kts
07-Sep-19 20:25 35.135949 -120.602926 132 7017ft 238kts
07-Sep-19 20:26 35.091329 -120.542992 132 7018ft 238kts
07-Sep-19 20:27 35.046697 -120.483129 132 7018ft 238kts
07-Sep-19 20:28 35.002054 -120.423364 132 7017ft 238kts
07-Sep-19 20:29 34.957175 -120.363381 132 7017ft 239kts
07-Sep-19 20:30 34.912272 -120.303482 132 7001ft 240kts
07-Sep-19 20:31 34.867184 -120.243433 132 6997ft 240kts
07-Sep-19 20:32 34.822059 -120.183380 133 6997ft 240kts
07-Sep-19 20:33 34.776884 -120.123404 133 6997ft 240kts
07-Sep-19 20:34 34.731518 -120.063305 133 6997ft 240kts
07-Sep-19 20:35 34.686114 -120.003259 133 6982ft 241kts
07-Sep-19 20:36 34.641625 -119.944419 133 6971ft 225kts
07-Sep-19 20:37 34.601010 -119.891167 134 6946ft 208kts
07-Sep-19 20:38 34.562247 -119.840205 134 6906ft 204kts
07-Sep-19 20:39 34.523629 -119.789549 134 6881ft 210kts
07-Sep-19 20:40 34.487893 -119.731166 123 6871ft 218kts
07-Sep-19 20:41 34.454990 -119.670024 123 6872ft 212kts
07-Sep-19 20:42 34.422974 -119.611215 124 6866ft 207kts
07-Sep-19 20:43 34.391372 -119.553173 123 6868ft 205kts
07-Sep-19 20:44 34.360043 -119.495695 124 6873ft 204kts
07-Sep-19 20:45 34.328678 -119.438242 124 6877ft 203kts
07-Sep-19 20:46 34.319491 -119.374835 79 6995ft 194kts
07-Sep-19 20:47 34.325053 -119.308218 81 7013ft 213kts
07-Sep-19 20:48 34.330586 -119.233828 82 7007ft 227kts
07-Sep-19 20:49 34.336094 -119.159702 82 7005ft 211kts
07-Sep-19 20:50 34.341338 -119.089925 82 7009ft 205kts
07-Sep-19 20:51 34.346466 -119.021878 82 7018ft 202kts
07-Sep-19 20:52 34.351427 -118.954358 82 7024ft 201kts
07-Sep-19 20:53 34.356314 -118.886961 83 7032ft 201kts
07-Sep-19 20:54 34.344305 -118.820842 104 7038ft 202kts
07-Sep-19 20:55 34.330603 -118.754514 104 7038ft 202kts
07-Sep-19 20:56 34.316858 -118.688223 104 6790ft 205kts
07-Sep-19 20:57 34.303971 -118.623356 103 5699ft 192kts
07-Sep-19 20:58 34.293180 -118.568678 103 5023ft 163kts
07-Sep-19 20:59 34.282944 -118.516346 103 5000ft 149kts
07-Sep-19 21:00 34.273521 -118.467218 103 5015ft 150kts
07-Sep-19 21:01 34.254264 -118.426503 155 4588ft 136kts
07-Sep-19 21:02 34.228904 -118.396665 88 3064ft 130kts
07-Sep-19 21:03 34.251366 -118.404793 315 1120ft 105kts
07-Sep-19 21:04 34.263168 -118.417298 39 1006ft 6kts
07-Sep-19 21:05 34.263362 -118.416964 91 1006ft 3kts
07-Sep-19 21:06 34.261455 -118.414856 138 1006ft 11kts
07-Sep-19 21:07 34.260805 -118.412558 71 1006ft 2kts
07-Sep-19 21:08 34.261117 -118.412651 225 1006ft 0kts
07-Sep-19 21:09 34.261116 -118.412652 225 1006ft 0kts
07-Sep-19 21:10 34.261116 -118.412652 225 1006ft 0kts
07-Sep-19 21:11 34.261116 -118.412652 225 1006ft 0kts
07-Sep-19 21:12 34.261116 -118.412652 225 1006ft 0kts
07-Sep-19 21:13 34.261116 -118.412652 225 1006ft 0kts
07-Sep-19 21:14 34.261116 -118.412652 225 1006ft 0kts
07-Sep-19 21:15 34.261116 -118.412652 225 1006ft 0kts

Navigation Log

Ident Type
Flight plan parsing failed, navigation log unavailable